sensor_id;sensor_type;location;lat;lon;timestamp;temperature;humidity
25188;DHT22;13141;50.414;8.050;2022-07-11T00:01:38;18.40;99.90
25188;DHT22;13141;50.414;8.050;2022-07-11T00:04:03;18.40;99.90
25188;DHT22;13141;50.414;8.050;2022-07-11T00:06:29;18.40;99.90
25188;DHT22;13141;50.414;8.050;2022-07-11T00:08:55;18.40;99.90
25188;DHT22;13141;50.414;8.050;2022-07-11T00:11:20;18.40;99.90
25188;DHT22;13141;50.414;8.050;2022-07-11T00:13:46;18.50;99.90
25188;DHT22;13141;50.414;8.050;2022-07-11T00:16:12;18.50;99.90
25188;DHT22;13141;50.414;8.050;2022-07-11T00:18:39;18.60;99.90
25188;DHT22;13141;50.414;8.050;2022-07-11T00:21:04;18.30;99.90
25188;DHT22;13141;50.414;8.050;2022-07-11T00:23:30;18.40;99.90
25188;DHT22;13141;50.414;8.050;2022-07-11T00:25:56;18.40;99.90
25188;DHT22;13141;50.414;8.050;2022-07-11T00:28:21;18.40;99.90
25188;DHT22;13141;50.414;8.050;2022-07-11T00:30:47;18.30;99.90
25188;DHT22;13141;50.414;8.050;2022-07-11T00:33:13;18.40;99.90
25188;DHT22;13141;50.414;8.050;2022-07-11T00:35:39;18.40;99.90
25188;DHT22;13141;50.414;8.050;2022-07-11T00:38:04;18.40;99.90
25188;DHT22;13141;50.414;8.050;2022-07-11T00:40:30;18.40;99.90
25188;DHT22;13141;50.414;8.050;2022-07-11T00:42:56;18.40;99.90
25188;DHT22;13141;50.414;8.050;2022-07-11T00:45:21;18.40;99.90
25188;DHT22;13141;50.414;8.050;2022-07-11T00:47:47;18.40;99.90
25188;DHT22;13141;50.414;8.050;2022-07-11T00:50:13;18.30;99.90
25188;DHT22;13141;50.414;8.050;2022-07-11T00:52:40;18.30;99.90
25188;DHT22;13141;50.414;8.050;2022-07-11T00:55:07;18.30;99.90
25188;DHT22;13141;50.414;8.050;2022-07-11T00:57:33;18.30;99.90
25188;DHT22;13141;50.414;8.050;2022-07-11T00:59:59;18.30;99.90
25188;DHT22;13141;50.414;8.050;2022-07-11T01:02:25;18.30;99.90
25188;DHT22;13141;50.414;8.050;2022-07-11T01:04:50;18.30;99.90
25188;DHT22;13141;50.414;8.050;2022-07-11T01:07:16;18.30;99.90
25188;DHT22;13141;50.414;8.050;2022-07-11T01:09:42;18.30;99.90
25188;DHT22;13141;50.414;8.050;2022-07-11T01:12:08;18.30;99.90
25188;DHT22;13141;50.414;8.050;2022-07-11T01:14:34;18.30;99.90
25188;DHT22;13141;50.414;8.050;2022-07-11T01:17:00;18.30;99.90
25188;DHT22;13141;50.414;8.050;2022-07-11T01:19:25;18.30;99.90
25188;DHT22;13141;50.414;8.050;2022-07-11T01:21:52;18.30;99.90
25188;DHT22;13141;50.414;8.050;2022-07-11T01:24:20;18.30;99.90
25188;DHT22;13141;50.414;8.050;2022-07-11T01:26:47;18.20;99.90
25188;DHT22;13141;50.414;8.050;2022-07-11T01:29:14;18.30;99.90
25188;DHT22;13141;50.414;8.050;2022-07-11T01:31:44;17.80;99.90
25188;DHT22;13141;50.414;8.050;2022-07-11T01:34:10;18.30;99.90
25188;DHT22;13141;50.414;8.050;2022-07-11T01:36:36;18.20;99.90
25188;DHT22;13141;50.414;8.050;2022-07-11T01:39:03;18.30;99.90
25188;DHT22;13141;50.414;8.050;2022-07-11T01:41:28;18.30;99.90
25188;DHT22;13141;50.414;8.050;2022-07-11T01:43:54;18.30;99.90
25188;DHT22;13141;50.414;8.050;2022-07-11T01:46:19;18.20;99.90
25188;DHT22;13141;50.414;8.050;2022-07-11T01:48:47;18.30;99.90
25188;DHT22;13141;50.414;8.050;2022-07-11T01:51:12;18.20;99.90
25188;DHT22;13141;50.414;8.050;2022-07-11T01:53:38;18.20;99.90
25188;DHT22;13141;50.414;8.050;2022-07-11T01:56:04;18.20;99.90
25188;DHT22;13141;50.414;8.050;2022-07-11T01:58:30;18.20;99.90
25188;DHT22;13141;50.414;8.050;2022-07-11T02:00:56;18.40;99.90
25188;DHT22;13141;50.414;8.050;2022-07-11T02:03:22;18.10;99.90
25188;DHT22;13141;50.414;8.050;2022-07-11T02:05:48;18.10;99.90
25188;DHT22;13141;50.414;8.050;2022-07-11T02:08:14;18.10;99.90
25188;DHT22;13141;50.414;8.050;2022-07-11T02:10:47;18.10;99.90
25188;DHT22;13141;50.414;8.050;2022-07-11T02:13:15;18.10;99.90
25188;DHT22;13141;50.414;8.050;2022-07-11T02:15:42;17.80;99.90
25188;DHT22;13141;50.414;8.050;2022-07-11T02:18:08;18.10;99.90
25188;DHT22;13141;50.414;8.050;2022-07-11T02:20:34;18.10;99.90
25188;DHT22;13141;50.414;8.050;2022-07-11T02:23:00;18.10;99.90
25188;DHT22;13141;50.414;8.050;2022-07-11T02:25:27;18.10;99.90
25188;DHT22;13141;50.414;8.050;2022-07-11T02:27:52;18.00;99.90
25188;DHT22;13141;50.414;8.050;2022-07-11T02:30:18;18.10;99.90
25188;DHT22;13141;50.414;8.050;2022-07-11T02:32:44;18.10;99.90
25188;DHT22;13141;50.414;8.050;2022-07-11T02:35:09;18.10;99.90
25188;DHT22;13141;50.414;8.050;2022-07-11T02:37:35;18.10;99.90
25188;DHT22;13141;50.414;8.050;2022-07-11T02:40:01;18.10;99.90
25188;DHT22;13141;50.414;8.050;2022-07-11T02:42:27;18.10;99.90
25188;DHT22;13141;50.414;8.050;2022-07-11T02:44:52;18.10;99.90
25188;DHT22;13141;50.414;8.050;2022-07-11T02:47:18;18.10;99.90
25188;DHT22;13141;50.414;8.050;2022-07-11T02:49:43;18.10;99.90
25188;DHT22;13141;50.414;8.050;2022-07-11T02:52:09;18.10;99.90
25188;DHT22;13141;50.414;8.050;2022-07-11T02:54:36;18.10;99.90
25188;DHT22;13141;50.414;8.050;2022-07-11T02:57:01;18.10;99.90
25188;DHT22;13141;50.414;8.050;2022-07-11T02:59:27;18.10;99.90
25188;DHT22;13141;50.414;8.050;2022-07-11T03:01:53;18.10;99.90
25188;DHT22;13141;50.414;8.050;2022-07-11T03:04:19;18.10;99.90
25188;DHT22;13141;50.414;8.050;2022-07-11T03:06:44;18.10;99.90
25188;DHT22;13141;50.414;8.050;2022-07-11T03:09:11;18.10;99.90
25188;DHT22;13141;50.414;8.050;2022-07-11T03:11:36;18.10;99.90
25188;DHT22;13141;50.414;8.050;2022-07-11T03:14:02;18.10;99.90
25188;DHT22;13141;50.414;8.050;2022-07-11T03:16:29;18.10;99.90
25188;DHT22;13141;50.414;8.050;2022-07-11T03:18:55;18.10;99.90
25188;DHT22;13141;50.414;8.050;2022-07-11T03:21:21;18.20;99.90
25188;DHT22;13141;50.414;8.050;2022-07-11T03:23:47;18.20;99.90
25188;DHT22;13141;50.414;8.050;2022-07-11T03:26:14;18.10;99.90
25188;DHT22;13141;50.414;8.050;2022-07-11T03:28:40;18.10;99.90
25188;DHT22;13141;50.414;8.050;2022-07-11T03:31:05;18.10;99.90
25188;DHT22;13141;50.414;8.050;2022-07-11T03:33:31;18.00;99.90
25188;DHT22;13141;50.414;8.050;2022-07-11T03:35:56;18.00;99.90
25188;DHT22;13141;50.414;8.050;2022-07-11T03:38:22;18.00;99.90
25188;DHT22;13141;50.414;8.050;2022-07-11T03:40:48;17.90;99.90
25188;DHT22;13141;50.414;8.050;2022-07-11T03:43:17;18.00;99.90
25188;DHT22;13141;50.414;8.050;2022-07-11T03:45:43;18.10;99.90
25188;DHT22;13141;50.414;8.050;2022-07-11T03:48:08;18.00;99.90
25188;DHT22;13141;50.414;8.050;2022-07-11T03:50:35;17.90;99.90
25188;DHT22;13141;50.414;8.050;2022-07-11T03:53:01;17.90;99.90
25188;DHT22;13141;50.414;8.050;2022-07-11T03:55:27;18.00;99.90
25188;DHT22;13141;50.414;8.050;2022-07-11T03:57:53;17.90;99.90
25188;DHT22;13141;50.414;8.050;2022-07-11T04:00:19;17.80;99.90
25188;DHT22;13141;50.414;8.050;2022-07-11T04:02:46;17.90;99.90
25188;DHT22;13141;50.414;8.050;2022-07-11T04:05:12;17.90;99.90
25188;DHT22;13141;50.414;8.050;2022-07-11T04:07:38;18.20;99.90
25188;DHT22;13141;50.414;8.050;2022-07-11T04:10:04;18.00;99.90
25188;DHT22;13141;50.414;8.050;2022-07-11T04:12:29;18.00;99.90
25188;DHT22;13141;50.414;8.050;2022-07-11T04:14:55;18.10;99.90
25188;DHT22;13141;50.414;8.050;2022-07-11T04:17:21;18.10;99.90
25188;DHT22;13141;50.414;8.050;2022-07-11T04:19:46;18.10;99.90
25188;DHT22;13141;50.414;8.050;2022-07-11T04:22:12;18.20;99.90
25188;DHT22;13141;50.414;8.050;2022-07-11T04:24:38;18.20;99.90
25188;DHT22;13141;50.414;8.050;2022-07-11T04:27:03;18.50;99.90
25188;DHT22;13141;50.414;8.050;2022-07-11T04:29:29;18.30;99.90
25188;DHT22;13141;50.414;8.050;2022-07-11T04:31:55;18.20;99.90
25188;DHT22;13141;50.414;8.050;2022-07-11T04:34:21;18.30;99.90
25188;DHT22;13141;50.414;8.050;2022-07-11T04:36:46;18.30;99.90
25188;DHT22;13141;50.414;8.050;2022-07-11T04:39:12;18.40;99.90
25188;DHT22;13141;50.414;8.050;2022-07-11T04:41:37;18.40;99.90
25188;DHT22;13141;50.414;8.050;2022-07-11T04:44:03;18.40;99.90
25188;DHT22;13141;50.414;8.050;2022-07-11T04:46:29;18.40;99.90
25188;DHT22;13141;50.414;8.050;2022-07-11T04:48:55;18.50;99.90
25188;DHT22;13141;50.414;8.050;2022-07-11T04:51:21;18.50;99.90
25188;DHT22;13141;50.414;8.050;2022-07-11T04:53:47;18.50;99.90
25188;DHT22;13141;50.414;8.050;2022-07-11T04:56:13;18.50;99.90
25188;DHT22;13141;50.414;8.050;2022-07-11T04:58:39;18.50;99.90
25188;DHT22;13141;50.414;8.050;2022-07-11T05:01:05;18.60;99.90
25188;DHT22;13141;50.414;8.050;2022-07-11T05:03:30;18.60;99.90
25188;DHT22;13141;50.414;8.050;2022-07-11T05:05:57;18.70;99.90
25188;DHT22;13141;50.414;8.050;2022-07-11T05:08:23;18.70;99.90
25188;DHT22;13141;50.414;8.050;2022-07-11T05:10:49;18.70;99.90
25188;DHT22;13141;50.414;8.050;2022-07-11T05:13:15;18.70;99.90
25188;DHT22;13141;50.414;8.050;2022-07-11T05:15:40;18.60;99.90
25188;DHT22;13141;50.414;8.050;2022-07-11T05:18:06;18.60;99.90
25188;DHT22;13141;50.414;8.050;2022-07-11T05:20:32;18.60;99.90
25188;DHT22;13141;50.414;8.050;2022-07-11T05:22:58;18.60;99.90
25188;DHT22;13141;50.414;8.050;2022-07-11T05:25:24;18.60;99.90
25188;DHT22;13141;50.414;8.050;2022-07-11T05:27:51;18.60;99.90
25188;DHT22;13141;50.414;8.050;2022-07-11T05:30:16;18.60;99.90
25188;DHT22;13141;50.414;8.050;2022-07-11T05:32:42;18.70;99.90
25188;DHT22;13141;50.414;8.050;2022-07-11T05:35:08;18.70;99.90
25188;DHT22;13141;50.414;8.050;2022-07-11T05:37:34;18.60;99.90
25188;DHT22;13141;50.414;8.050;2022-07-11T05:39:59;18.60;99.90
25188;DHT22;13141;50.414;8.050;2022-07-11T05:42:25;18.60;99.90
25188;DHT22;13141;50.414;8.050;2022-07-11T05:44:51;18.60;99.90
25188;DHT22;13141;50.414;8.050;2022-07-11T05:47:17;18.60;99.90
25188;DHT22;13141;50.414;8.050;2022-07-11T05:49:42;18.70;99.90
25188;DHT22;13141;50.414;8.050;2022-07-11T05:52:08;18.70;99.90
25188;DHT22;13141;50.414;8.050;2022-07-11T05:54:34;18.70;99.90
25188;DHT22;13141;50.414;8.050;2022-07-11T05:57:00;18.60;99.90
25188;DHT22;13141;50.414;8.050;2022-07-11T05:59:29;18.60;99.90
25188;DHT22;13141;50.414;8.050;2022-07-11T06:01:55;18.70;99.90
25188;DHT22;13141;50.414;8.050;2022-07-11T06:04:20;18.80;99.90
25188;DHT22;13141;50.414;8.050;2022-07-11T06:06:46;18.90;99.90
25188;DHT22;13141;50.414;8.050;2022-07-11T06:09:12;19.00;99.90
25188;DHT22;13141;50.414;8.050;2022-07-11T06:11:38;19.00;99.90
25188;DHT22;13141;50.414;8.050;2022-07-11T06:14:03;19.00;99.90
25188;DHT22;13141;50.414;8.050;2022-07-11T06:16:31;19.10;99.90
25188;DHT22;13141;50.414;8.050;2022-07-11T06:18:57;19.10;99.90
25188;DHT22;13141;50.414;8.050;2022-07-11T06:21:23;19.20;99.90
25188;DHT22;13141;50.414;8.050;2022-07-11T06:23:49;19.20;99.90
25188;DHT22;13141;50.414;8.050;2022-07-11T06:26:15;19.30;99.90
25188;DHT22;13141;50.414;8.050;2022-07-11T06:28:41;19.30;99.90
25188;DHT22;13141;50.414;8.050;2022-07-11T06:31:06;19.40;99.90
25188;DHT22;13141;50.414;8.050;2022-07-11T06:33:33;19.40;99.90
25188;DHT22;13141;50.414;8.050;2022-07-11T06:36:00;19.40;99.90
25188;DHT22;13141;50.414;8.050;2022-07-11T06:38:26;19.40;99.90
25188;DHT22;13141;50.414;8.050;2022-07-11T06:40:52;19.50;99.90
25188;DHT22;13141;50.414;8.050;2022-07-11T06:43:19;19.50;99.90
25188;DHT22;13141;50.414;8.050;2022-07-11T06:45:44;19.60;99.90
25188;DHT22;13141;50.414;8.050;2022-07-11T06:48:10;19.60;99.90
25188;DHT22;13141;50.414;8.050;2022-07-11T06:50:35;19.70;99.90
25188;DHT22;13141;50.414;8.050;2022-07-11T06:53:02;19.70;99.90
25188;DHT22;13141;50.414;8.050;2022-07-11T06:55:29;19.80;99.90
25188;DHT22;13141;50.414;8.050;2022-07-11T06:57:54;19.80;99.90
25188;DHT22;13141;50.414;8.050;2022-07-11T07:00:20;19.90;99.90
25188;DHT22;13141;50.414;8.050;2022-07-11T07:02:46;20.00;99.90
25188;DHT22;13141;50.414;8.050;2022-07-11T07:05:11;20.00;99.90
25188;DHT22;13141;50.414;8.050;2022-07-11T07:07:37;20.00;99.90
25188;DHT22;13141;50.414;8.050;2022-07-11T07:10:03;20.10;99.90
25188;DHT22;13141;50.414;8.050;2022-07-11T07:12:29;19.60;99.90
25188;DHT22;13141;50.414;8.050;2022-07-11T07:14:54;20.10;99.90
25188;DHT22;13141;50.414;8.050;2022-07-11T07:17:20;20.10;99.90
25188;DHT22;13141;50.414;8.050;2022-07-11T07:19:46;20.20;99.90
25188;DHT22;13141;50.414;8.050;2022-07-11T07:22:11;20.20;99.90
25188;DHT22;13141;50.414;8.050;2022-07-11T07:24:41;20.20;99.90
25188;DHT22;13141;50.414;8.050;2022-07-11T07:27:06;20.20;99.90
25188;DHT22;13141;50.414;8.050;2022-07-11T07:29:32;20.30;99.90
25188;DHT22;13141;50.414;8.050;2022-07-11T07:31:58;20.30;99.90
25188;DHT22;13141;50.414;8.050;2022-07-11T07:34:25;20.40;99.90
25188;DHT22;13141;50.414;8.050;2022-07-11T07:36:51;20.40;99.90
25188;DHT22;13141;50.414;8.050;2022-07-11T07:39:17;20.50;99.90
25188;DHT22;13141;50.414;8.050;2022-07-11T07:41:42;20.50;99.90
25188;DHT22;13141;50.414;8.050;2022-07-11T07:44:08;20.60;99.90
25188;DHT22;13141;50.414;8.050;2022-07-11T07:46:34;20.60;99.90
25188;DHT22;13141;50.414;8.050;2022-07-11T07:49:00;20.70;99.90
25188;DHT22;13141;50.414;8.050;2022-07-11T07:51:26;20.80;99.90
25188;DHT22;13141;50.414;8.050;2022-07-11T07:53:52;20.80;99.90
25188;DHT22;13141;50.414;8.050;2022-07-11T07:56:17;20.90;99.90
25188;DHT22;13141;50.414;8.050;2022-07-11T07:58:43;20.90;99.90
25188;DHT22;13141;50.414;8.050;2022-07-11T08:01:08;21.00;99.90
25188;DHT22;13141;50.414;8.050;2022-07-11T08:03:53;21.20;99.90
25188;DHT22;13141;50.414;8.050;2022-07-11T08:06:20;21.30;99.90
25188;DHT22;13141;50.414;8.050;2022-07-11T08:08:45;21.30;99.90
25188;DHT22;13141;50.414;8.050;2022-07-11T08:11:11;21.40;99.90
25188;DHT22;13141;50.414;8.050;2022-07-11T08:13:37;21.50;99.90
25188;DHT22;13141;50.414;8.050;2022-07-11T08:16:06;21.50;99.90
25188;DHT22;13141;50.414;8.050;2022-07-11T08:18:33;21.10;99.90
25188;DHT22;13141;50.414;8.050;2022-07-11T08:20:59;21.50;99.90
25188;DHT22;13141;50.414;8.050;2022-07-11T08:23:26;21.40;99.90
25188;DHT22;13141;50.414;8.050;2022-07-11T08:25:52;21.40;99.90
25188;DHT22;13141;50.414;8.050;2022-07-11T08:28:18;21.40;99.90
25188;DHT22;13141;50.414;8.050;2022-07-11T08:30:44;21.40;99.90
25188;DHT22;13141;50.414;8.050;2022-07-11T08:33:11;21.50;99.90
25188;DHT22;13141;50.414;8.050;2022-07-11T08:35:36;21.60;99.90
25188;DHT22;13141;50.414;8.050;2022-07-11T08:38:02;21.60;99.90
25188;DHT22;13141;50.414;8.050;2022-07-11T08:40:27;21.70;99.90
25188;DHT22;13141;50.414;8.050;2022-07-11T08:42:55;21.50;99.90
25188;DHT22;13141;50.414;8.050;2022-07-11T08:45:22;21.50;99.90
25188;DHT22;13141;50.414;8.050;2022-07-11T08:47:54;21.50;99.90
25188;DHT22;13141;50.414;8.050;2022-07-11T08:50:20;21.40;99.90
25188;DHT22;13141;50.414;8.050;2022-07-11T08:52:48;21.30;99.90
25188;DHT22;13141;50.414;8.050;2022-07-11T08:55:13;21.40;99.90
25188;DHT22;13141;50.414;8.050;2022-07-11T08:57:39;21.50;99.90
25188;DHT22;13141;50.414;8.050;2022-07-11T09:00:07;21.60;99.90
25188;DHT22;13141;50.414;8.050;2022-07-11T09:02:35;21.70;99.90
25188;DHT22;13141;50.414;8.050;2022-07-11T09:05:02;21.80;99.90
25188;DHT22;13141;50.414;8.050;2022-07-11T09:07:31;21.80;99.90
25188;DHT22;13141;50.414;8.050;2022-07-11T09:09:57;22.00;99.90
25188;DHT22;13141;50.414;8.050;2022-07-11T09:12:23;22.30;99.90
25188;DHT22;13141;50.414;8.050;2022-07-11T09:14:49;22.60;99.90
25188;DHT22;13141;50.414;8.050;2022-07-11T09:17:29;22.70;99.90
25188;DHT22;13141;50.414;8.050;2022-07-11T09:19:58;22.70;99.90
25188;DHT22;13141;50.414;8.050;2022-07-11T09:22:24;22.80;99.90
25188;DHT22;13141;50.414;8.050;2022-07-11T09:25:10;23.00;99.90
25188;DHT22;13141;50.414;8.050;2022-07-11T09:27:53;23.10;99.90
25188;DHT22;13141;50.414;8.050;2022-07-11T09:30:28;23.30;99.90
25188;DHT22;13141;50.414;8.050;2022-07-11T09:33:04;23.40;99.90
25188;DHT22;13141;50.414;8.050;2022-07-11T09:35:38;23.60;99.90
25188;DHT22;13141;50.414;8.050;2022-07-11T09:38:10;23.90;99.90
25188;DHT22;13141;50.414;8.050;2022-07-11T09:40:37;24.10;99.90
25188;DHT22;13141;50.414;8.050;2022-07-11T09:43:03;24.20;99.90
25188;DHT22;13141;50.414;8.050;2022-07-11T09:45:31;24.30;99.90
25188;DHT22;13141;50.414;8.050;2022-07-11T09:47:58;24.30;99.90
25188;DHT22;13141;50.414;8.050;2022-07-11T09:50:26;24.30;99.90
25188;DHT22;13141;50.414;8.050;2022-07-11T09:53:05;24.40;99.90
25188;DHT22;13141;50.414;8.050;2022-07-11T09:55:34;24.50;99.90
25188;DHT22;13141;50.414;8.050;2022-07-11T09:58:04;24.60;99.90
25188;DHT22;13141;50.414;8.050;2022-07-11T10:00:29;24.80;99.90
25188;DHT22;13141;50.414;8.050;2022-07-11T10:02:56;25.00;99.90
25188;DHT22;13141;50.414;8.050;2022-07-11T10:05:24;25.20;99.40
25188;DHT22;13141;50.414;8.050;2022-07-11T10:07:50;25.30;98.50
25188;DHT22;13141;50.414;8.050;2022-07-11T10:10:15;25.20;98.60
25188;DHT22;13141;50.414;8.050;2022-07-11T10:12:45;25.30;99.30
25188;DHT22;13141;50.414;8.050;2022-07-11T10:15:20;25.50;99.10
25188;DHT22;13141;50.414;8.050;2022-07-11T10:23:23;25.50;99.60
25188;DHT22;13141;50.414;8.050;2022-07-11T10:25:56;25.60;99.00
25188;DHT22;13141;50.414;8.050;2022-07-11T10:28:41;25.60;98.80
25188;DHT22;13141;50.414;8.050;2022-07-11T10:31:19;25.60;97.90
25188;DHT22;13141;50.414;8.050;2022-07-11T10:34:06;25.80;97.80
25188;DHT22;13141;50.414;8.050;2022-07-11T10:36:35;25.60;97.30
25188;DHT22;13141;50.414;8.050;2022-07-11T10:39:17;25.50;98.20
25188;DHT22;13141;50.414;8.050;2022-07-11T10:41:44;25.30;97.00
25188;DHT22;13141;50.414;8.050;2022-07-11T10:44:11;25.20;97.90
25188;DHT22;13141;50.414;8.050;2022-07-11T10:46:37;25.40;98.50
25188;DHT22;13141;50.414;8.050;2022-07-11T10:59:22;26.70;96.50
25188;DHT22;13141;50.414;8.050;2022-07-11T11:09:55;26.20;95.70
25188;DHT22;13141;50.414;8.050;2022-07-11T11:23:35;25.60;96.60
25188;DHT22;13141;50.414;8.050;2022-07-11T11:26:15;25.70;97.20
25188;DHT22;13141;50.414;8.050;2022-07-11T11:28:57;25.80;96.40
25188;DHT22;13141;50.414;8.050;2022-07-11T11:31:23;25.80;96.00
25188;DHT22;13141;50.414;8.050;2022-07-11T11:33:49;25.70;96.00
25188;DHT22;13141;50.414;8.050;2022-07-11T11:36:20;25.70;96.90
25188;DHT22;13141;50.414;8.050;2022-07-11T11:38:46;25.70;97.00
25188;DHT22;13141;50.414;8.050;2022-07-11T11:41:27;25.70;97.30
25188;DHT22;13141;50.414;8.050;2022-07-11T11:43:54;25.70;97.20
25188;DHT22;13141;50.414;8.050;2022-07-11T11:46:27;25.80;97.60
25188;DHT22;13141;50.414;8.050;2022-07-11T11:48:57;25.80;97.00
25188;DHT22;13141;50.414;8.050;2022-07-11T11:51:24;25.70;96.80
25188;DHT22;13141;50.414;8.050;2022-07-11T11:54:01;25.80;96.80
25188;DHT22;13141;50.414;8.050;2022-07-11T11:56:33;25.70;96.60
25188;DHT22;13141;50.414;8.050;2022-07-11T11:59:03;25.70;97.10
25188;DHT22;13141;50.414;8.050;2022-07-11T12:01:31;25.60;96.50
25188;DHT22;13141;50.414;8.050;2022-07-11T12:04:00;25.50;96.60
25188;DHT22;13141;50.414;8.050;2022-07-11T12:06:28;25.40;96.90
25188;DHT22;13141;50.414;8.050;2022-07-11T12:09:07;25.50;96.90
25188;DHT22;13141;50.414;8.050;2022-07-11T12:11:35;25.20;96.90
25188;DHT22;13141;50.414;8.050;2022-07-11T12:14:05;25.20;97.40
25188;DHT22;13141;50.414;8.050;2022-07-11T12:16:33;25.20;96.90
25188;DHT22;13141;50.414;8.050;2022-07-11T12:19:09;25.20;96.90
25188;DHT22;13141;50.414;8.050;2022-07-11T12:21:36;24.90;97.10
25188;DHT22;13141;50.414;8.050;2022-07-11T12:24:04;25.00;97.20
25188;DHT22;13141;50.414;8.050;2022-07-11T12:26:34;24.90;97.70
25188;DHT22;13141;50.414;8.050;2022-07-11T12:29:05;25.00;97.30
25188;DHT22;13141;50.414;8.050;2022-07-11T12:34:21;24.80;97.40
25188;DHT22;13141;50.414;8.050;2022-07-11T12:36:47;24.80;97.60
25188;DHT22;13141;50.414;8.050;2022-07-11T12:39:22;24.90;97.70
25188;DHT22;13141;50.414;8.050;2022-07-11T12:41:50;25.00;97.20
25188;DHT22;13141;50.414;8.050;2022-07-11T12:44:31;25.20;97.50
25188;DHT22;13141;50.414;8.050;2022-07-11T12:47:22;25.20;97.20
25188;DHT22;13141;50.414;8.050;2022-07-11T12:49:50;25.30;97.60
25188;DHT22;13141;50.414;8.050;2022-07-11T12:52:16;25.40;97.60
25188;DHT22;13141;50.414;8.050;2022-07-11T12:54:43;25.40;97.30
25188;DHT22;13141;50.414;8.050;2022-07-11T12:57:09;25.70;97.30
25188;DHT22;13141;50.414;8.050;2022-07-11T12:59:39;26.00;97.40
25188;DHT22;13141;50.414;8.050;2022-07-11T13:02:09;26.50;97.30
25188;DHT22;13141;50.414;8.050;2022-07-11T13:04:39;26.70;96.70
25188;DHT22;13141;50.414;8.050;2022-07-11T13:07:30;26.90;96.40
25188;DHT22;13141;50.414;8.050;2022-07-11T13:10:24;27.10;97.00
25188;DHT22;13141;50.414;8.050;2022-07-11T13:12:52;27.10;96.50
25188;DHT22;13141;50.414;8.050;2022-07-11T13:15:18;27.10;96.10
25188;DHT22;13141;50.414;8.050;2022-07-11T13:17:54;26.90;96.20
25188;DHT22;13141;50.414;8.050;2022-07-11T13:20:26;26.90;96.90
25188;DHT22;13141;50.414;8.050;2022-07-11T13:22:53;26.80;96.60
25188;DHT22;13141;50.414;8.050;2022-07-11T13:25:20;26.80;96.90
25188;DHT22;13141;50.414;8.050;2022-07-11T13:27:47;26.90;96.70
25188;DHT22;13141;50.414;8.050;2022-07-11T13:30:17;27.10;96.50
25188;DHT22;13141;50.414;8.050;2022-07-11T13:32:47;27.00;96.40
25188;DHT22;13141;50.414;8.050;2022-07-11T13:35:13;27.10;96.20
25188;DHT22;13141;50.414;8.050;2022-07-11T13:37:40;27.40;96.50
25188;DHT22;13141;50.414;8.050;2022-07-11T13:40:14;27.30;95.90
25188;DHT22;13141;50.414;8.050;2022-07-11T13:42:41;27.20;96.30
25188;DHT22;13141;50.414;8.050;2022-07-11T13:45:10;27.20;96.30
25188;DHT22;13141;50.414;8.050;2022-07-11T13:47:35;27.10;96.00
25188;DHT22;13141;50.414;8.050;2022-07-11T13:50:02;27.10;96.00
25188;DHT22;13141;50.414;8.050;2022-07-11T13:52:28;27.20;95.30
25188;DHT22;13141;50.414;8.050;2022-07-11T13:54:54;27.30;95.80
25188;DHT22;13141;50.414;8.050;2022-07-11T13:57:20;27.40;95.30
25188;DHT22;13141;50.414;8.050;2022-07-11T13:59:46;27.50;95.50
25188;DHT22;13141;50.414;8.050;2022-07-11T14:02:12;27.40;95.40
25188;DHT22;13141;50.414;8.050;2022-07-11T14:04:37;27.40;95.60
25188;DHT22;13141;50.414;8.050;2022-07-11T14:07:03;27.30;95.80
25188;DHT22;13141;50.414;8.050;2022-07-11T14:09:29;27.30;95.60
25188;DHT22;13141;50.414;8.050;2022-07-11T14:11:55;27.20;95.40
25188;DHT22;13141;50.414;8.050;2022-07-11T14:14:21;27.40;95.30
25188;DHT22;13141;50.414;8.050;2022-07-11T14:16:46;27.10;95.30
25188;DHT22;13141;50.414;8.050;2022-07-11T14:19:12;27.20;95.80
25188;DHT22;13141;50.414;8.050;2022-07-11T14:21:39;27.20;95.80
25188;DHT22;13141;50.414;8.050;2022-07-11T14:24:05;27.40;95.90
25188;DHT22;13141;50.414;8.050;2022-07-11T14:26:35;27.60;95.70
25188;DHT22;13141;50.414;8.050;2022-07-11T14:29:03;27.60;95.20
25188;DHT22;13141;50.414;8.050;2022-07-11T14:31:28;27.50;94.90
25188;DHT22;13141;50.414;8.050;2022-07-11T14:33:55;27.30;95.10
25188;DHT22;13141;50.414;8.050;2022-07-11T14:36:22;27.10;94.90
25188;DHT22;13141;50.414;8.050;2022-07-11T14:38:49;27.00;94.40
25188;DHT22;13141;50.414;8.050;2022-07-11T14:41:15;27.00;95.10
25188;DHT22;13141;50.414;8.050;2022-07-11T14:43:44;27.10;95.30
25188;DHT22;13141;50.414;8.050;2022-07-11T14:46:10;27.30;95.60
25188;DHT22;13141;50.414;8.050;2022-07-11T14:48:36;27.40;94.70
25188;DHT22;13141;50.414;8.050;2022-07-11T14:51:03;27.70;94.80
25188;DHT22;13141;50.414;8.050;2022-07-11T14:53:29;27.80;94.70
25188;DHT22;13141;50.414;8.050;2022-07-11T14:55:54;28.20;94.90
25188;DHT22;13141;50.414;8.050;2022-07-11T14:58:20;28.20;94.60
25188;DHT22;13141;50.414;8.050;2022-07-11T15:00:46;28.20;94.40
25188;DHT22;13141;50.414;8.050;2022-07-11T15:03:12;28.10;94.20
25188;DHT22;13141;50.414;8.050;2022-07-11T15:05:58;27.90;93.60
25188;DHT22;13141;50.414;8.050;2022-07-11T15:08:24;27.90;93.90
25188;DHT22;13141;50.414;8.050;2022-07-11T15:11:08;28.10;93.90
25188;DHT22;13141;50.414;8.050;2022-07-11T15:13:53;28.70;94.20
25188;DHT22;13141;50.414;8.050;2022-07-11T15:16:19;29.20;93.10
25188;DHT22;13141;50.414;8.050;2022-07-11T15:18:45;29.70;92.80
25188;DHT22;13141;50.414;8.050;2022-07-11T15:21:11;29.90;91.70
25188;DHT22;13141;50.414;8.050;2022-07-11T15:23:37;29.90;91.10
25188;DHT22;13141;50.414;8.050;2022-07-11T15:26:03;29.70;91.50
25188;DHT22;13141;50.414;8.050;2022-07-11T15:28:29;29.40;91.40
25188;DHT22;13141;50.414;8.050;2022-07-11T15:30:54;29.20;92.10
25188;DHT22;13141;50.414;8.050;2022-07-11T15:33:20;29.20;92.60
25188;DHT22;13141;50.414;8.050;2022-07-11T15:35:50;29.60;91.90
25188;DHT22;13141;50.414;8.050;2022-07-11T15:38:16;29.80;91.40
25188;DHT22;13141;50.414;8.050;2022-07-11T15:40:42;29.70;92.00
25188;DHT22;13141;50.414;8.050;2022-07-11T15:43:07;29.90;91.90
25188;DHT22;13141;50.414;8.050;2022-07-11T15:45:33;30.00;91.60
25188;DHT22;13141;50.414;8.050;2022-07-11T15:47:59;29.90;90.80
25188;DHT22;13141;50.414;8.050;2022-07-11T15:50:25;30.00;91.40
25188;DHT22;13141;50.414;8.050;2022-07-11T15:52:51;29.90;91.70
25188;DHT22;13141;50.414;8.050;2022-07-11T15:55:17;29.70;90.90
25188;DHT22;13141;50.414;8.050;2022-07-11T15:57:42;29.50;91.70
25188;DHT22;13141;50.414;8.050;2022-07-11T16:00:08;29.30;91.30
25188;DHT22;13141;50.414;8.050;2022-07-11T16:02:37;29.10;91.20
25188;DHT22;13141;50.414;8.050;2022-07-11T16:05:04;28.90;91.80
25188;DHT22;13141;50.414;8.050;2022-07-11T16:07:29;28.70;91.70
25188;DHT22;13141;50.414;8.050;2022-07-11T16:09:55;28.40;90.90